createdAt,value
2017-10-17T00:00:57.249Z,13.50
2017-10-17T00:02:04.238Z,13.49
2017-10-17T00:03:11.126Z,13.47
2017-10-17T00:04:17.996Z,13.46
2017-10-17T00:05:24.821Z,13.45
2017-10-17T00:06:31.705Z,13.43
2017-10-17T00:07:38.559Z,13.42
2017-10-17T00:08:45.450Z,13.42
2017-10-17T00:09:52.329Z,13.40
2017-10-17T00:10:59.325Z,13.38
2017-10-17T00:12:06.233Z,13.38
2017-10-17T00:13:13.141Z,13.37
2017-10-17T00:14:20.270Z,13.35
2017-10-17T00:15:27.385Z,13.34
2017-10-17T00:16:34.254Z,13.34
2017-10-17T00:17:41.126Z,13.31
2017-10-17T00:18:47.985Z,13.29
2017-10-17T00:19:54.878Z,13.29
2017-10-17T00:21:01.704Z,13.27
2017-10-17T00:22:08.625Z,13.27
2017-10-17T00:23:15.521Z,13.26
2017-10-17T00:24:22.485Z,13.24
2017-10-17T00:25:29.375Z,13.24
2017-10-17T00:26:36.249Z,13.23
2017-10-17T00:27:43.128Z,13.22
2017-10-17T00:28:50.101Z,13.21
2017-10-17T00:29:56.849Z,13.18
2017-10-17T00:31:03.734Z,13.16
2017-10-17T00:32:10.765Z,13.16
2017-10-17T00:33:17.670Z,13.14
2017-10-17T00:34:24.601Z,13.13
2017-10-17T00:35:31.497Z,13.11
2017-10-17T00:36:38.570Z,13.10
2017-10-17T00:37:45.474Z,13.08
2017-10-17T00:38:52.250Z,13.09
2017-10-17T00:39:59.161Z,13.08
2017-10-17T00:41:06.084Z,13.06
2017-10-17T00:42:12.998Z,13.05
2017-10-17T00:43:20.090Z,13.03
2017-10-17T00:44:27.058Z,13.03
2017-10-17T00:45:33.945Z,13.01
2017-10-17T00:46:40.938Z,12.99
2017-10-17T00:47:47.829Z,12.98
2017-10-17T00:48:55.083Z,12.98
2017-10-17T00:50:01.494Z,12.97
2017-10-17T00:51:08.430Z,12.96
2017-10-17T00:52:15.418Z,12.94
2017-10-17T00:53:22.290Z,12.93
2017-10-17T00:54:29.306Z,12.93
2017-10-17T00:55:36.153Z,12.91
2017-10-17T00:56:43.069Z,12.88
2017-10-17T00:57:49.966Z,12.89
2017-10-17T00:58:56.957Z,12.87
2017-10-17T01:00:04.228Z,12.87
2017-10-17T01:01:11.080Z,12.86
2017-10-17T01:02:18.174Z,12.83
2017-10-17T01:03:25.174Z,12.82
2017-10-17T01:04:32.122Z,12.80
2017-10-17T01:05:39.218Z,12.80
2017-10-17T01:06:46.358Z,12.79
2017-10-17T01:07:53.281Z,12.78
2017-10-17T01:09:00.245Z,12.77
2017-10-17T01:10:07.191Z,12.77
2017-10-17T01:11:14.045Z,12.75
2017-10-17T01:12:21.016Z,12.73
2017-10-17T01:13:27.921Z,12.72
2017-10-17T01:14:34.826Z,12.72
2017-10-17T01:15:41.982Z,12.70
2017-10-17T01:16:48.374Z,12.70
2017-10-17T01:17:55.229Z,12.67
2017-10-17T01:19:02.157Z,12.66
2017-10-17T01:20:09.022Z,12.65
2017-10-17T01:21:15.966Z,12.63
2017-10-17T01:22:22.877Z,12.65
2017-10-17T01:23:29.805Z,12.63
2017-10-17T01:24:36.698Z,12.61
2017-10-17T01:25:43.653Z,12.60
2017-10-17T01:26:50.737Z,12.57
2017-10-17T01:27:57.845Z,12.57
2017-10-17T01:29:04.386Z,12.56
2017-10-17T01:30:11.317Z,12.56
2017-10-17T01:31:18.455Z,12.53
2017-10-17T01:32:25.460Z,12.53
2017-10-17T01:33:32.378Z,12.52
2017-10-17T01:34:39.301Z,12.51
2017-10-17T01:35:46.293Z,12.50
2017-10-17T01:36:53.191Z,12.48
2017-10-17T01:38:00.174Z,12.47
2017-10-17T01:39:07.170Z,12.46
2017-10-17T01:40:14.088Z,12.45
2017-10-17T01:41:21.006Z,12.44
2017-10-17T01:42:27.898Z,12.43
2017-10-17T01:43:34.818Z,12.43
2017-10-17T01:44:41.762Z,12.41
2017-10-17T01:45:48.694Z,12.41
2017-10-17T01:46:55.562Z,12.38
2017-10-17T01:48:02.483Z,12.38
2017-10-17T01:49:09.530Z,12.37
2017-10-17T01:50:16.497Z,12.36
2017-10-17T01:51:23.445Z,12.35
2017-10-17T01:52:30.645Z,12.34
2017-10-17T01:53:37.085Z,12.33
2017-10-17T01:54:44.032Z,12.33
2017-10-17T01:55:51.003Z,12.32
2017-10-17T01:56:57.922Z,12.30
2017-10-17T01:58:04.808Z,12.30
2017-10-17T01:59:11.777Z,12.28
2017-10-17T02:00:18.786Z,12.27
2017-10-17T02:01:25.685Z,12.27
2017-10-17T02:02:32.741Z,12.27
2017-10-17T02:03:39.629Z,12.26
2017-10-17T02:04:46.586Z,12.22
2017-10-17T02:05:53.250Z,12.22
2017-10-17T02:07:00.142Z,12.21
2017-10-17T02:08:07.023Z,12.20
2017-10-17T02:09:13.957Z,12.20
2017-10-17T02:10:20.933Z,12.19
2017-10-17T02:11:27.817Z,12.17
2017-10-17T02:12:34.686Z,12.17
2017-10-17T02:13:41.624Z,12.15
2017-10-17T02:14:48.559Z,12.15
2017-10-17T02:15:55.550Z,12.14
2017-10-17T02:17:02.450Z,12.13
2017-10-17T02:18:09.341Z,12.13
2017-10-17T02:19:16.314Z,12.12
2017-10-17T02:20:23.234Z,12.10
2017-10-17T02:21:30.148Z,12.09
2017-10-17T02:22:37.158Z,12.08
2017-10-17T02:23:44.074Z,12.07
2017-10-17T02:24:51.038Z,12.06
2017-10-17T02:25:57.978Z,12.06
2017-10-17T02:27:04.962Z,12.05
2017-10-17T02:28:11.865Z,12.05
2017-10-17T02:29:18.850Z,12.03
2017-10-17T02:30:25.738Z,12.03
2017-10-17T02:31:32.730Z,12.01
2017-10-17T02:32:39.687Z,12.01
2017-10-17T02:33:46.769Z,11.99
2017-10-17T02:34:53.681Z,12.00
2017-10-17T02:36:00.604Z,11.96
2017-10-17T02:37:07.474Z,11.97
2017-10-17T02:38:14.453Z,11.96
2017-10-17T02:39:21.400Z,11.95
2017-10-17T02:40:28.233Z,11.93
2017-10-17T02:41:35.187Z,11.93
2017-10-17T02:42:42.062Z,11.91
2017-10-17T02:43:49.093Z,11.92
2017-10-17T02:44:56.035Z,11.90
2017-10-17T02:46:02.959Z,11.89
2017-10-17T02:47:09.966Z,11.89
2017-10-17T02:48:16.829Z,11.88
2017-10-17T02:49:23.803Z,11.86
2017-10-17T02:50:30.741Z,11.87
2017-10-17T02:51:37.770Z,11.85
2017-10-17T02:52:44.714Z,11.83
2017-10-17T02:53:51.717Z,11.83
2017-10-17T02:54:58.611Z,11.81
2017-10-17T02:56:05.551Z,11.80
2017-10-17T02:57:12.450Z,11.78
2017-10-17T02:58:19.318Z,11.78
2017-10-17T02:59:26.490Z,11.78
2017-10-17T03:00:33.601Z,11.77
2017-10-17T03:01:40.582Z,11.76
2017-10-17T03:02:47.561Z,11.76
2017-10-17T03:03:54.509Z,11.74
2017-10-17T03:05:01.266Z,11.74
2017-10-17T03:06:08.142Z,11.73
2017-10-17T03:07:15.101Z,11.71
2017-10-17T03:08:22.011Z,11.70
2017-10-17T03:09:29.001Z,11.71
2017-10-17T03:10:35.886Z,11.71
2017-10-17T03:11:42.774Z,11.68
2017-10-17T03:12:49.704Z,11.67
2017-10-17T03:13:56.717Z,11.67
2017-10-17T03:15:03.655Z,11.66
2017-10-17T03:16:10.586Z,11.66
2017-10-17T03:17:17.453Z,11.66
2017-10-17T03:18:24.269Z,11.65
2017-10-17T03:19:31.244Z,11.63
2017-10-17T03:20:38.510Z,11.63
2017-10-17T03:21:44.922Z,11.61
2017-10-17T03:22:51.813Z,11.60
2017-10-17T03:23:58.672Z,11.60
2017-10-17T03:25:05.641Z,11.59
2017-10-17T03:26:12.563Z,11.58
2017-10-17T03:27:19.486Z,11.56
2017-10-17T03:28:26.362Z,11.56
2017-10-17T03:29:33.305Z,11.55
2017-10-17T03:30:40.338Z,11.54
2017-10-17T03:31:47.281Z,11.54
2017-10-17T03:32:54.173Z,11.54
2017-10-17T03:34:01.026Z,11.52
2017-10-17T03:35:07.989Z,11.51
2017-10-17T03:36:14.937Z,11.51
2017-10-17T03:37:21.960Z,11.49
2017-10-17T03:38:28.978Z,11.48
2017-10-17T03:39:35.923Z,11.49
2017-10-17T03:40:42.966Z,11.49
2017-10-17T03:41:49.898Z,11.47
2017-10-17T03:42:56.849Z,11.47
2017-10-17T03:44:03.909Z,11.47
2017-10-17T03:45:10.970Z,11.43
2017-10-17T03:46:17.889Z,11.43
2017-10-17T03:47:25.170Z,11.42
2017-10-17T03:48:31.562Z,11.42
2017-10-17T03:49:38.482Z,11.42
2017-10-17T03:50:45.421Z,11.41
2017-10-17T03:51:52.356Z,11.39
2017-10-17T03:52:59.321Z,11.39
2017-10-17T03:54:06.480Z,11.38
2017-10-17T03:55:13.422Z,11.39
2017-10-17T03:56:20.361Z,11.38
2017-10-17T03:57:27.347Z,11.37
2017-10-17T03:58:34.281Z,11.37
2017-10-17T03:59:41.274Z,11.35
2017-10-17T04:00:48.261Z,11.34
2017-10-17T04:01:55.149Z,11.33
2017-10-17T04:03:02.059Z,11.33
2017-10-17T04:04:09.029Z,11.32
2017-10-17T04:05:15.923Z,11.31
2017-10-17T04:06:22.829Z,11.29
2017-10-17T04:07:29.760Z,11.29
2017-10-17T04:08:36.664Z,11.29
2017-10-17T04:09:43.650Z,11.28
2017-10-17T04:10:50.589Z,11.28
2017-10-17T04:11:57.529Z,11.28
2017-10-17T04:13:04.410Z,11.27
2017-10-17T04:14:11.364Z,11.27
2017-10-17T04:15:18.292Z,11.23
2017-10-17T04:16:25.214Z,11.25
2017-10-17T04:17:32.181Z,11.23
2017-10-17T04:18:39.168Z,11.23
2017-10-17T04:19:46.118Z,11.22
2017-10-17T04:20:52.986Z,11.20
2017-10-17T04:21:59.886Z,11.20
2017-10-17T04:23:06.761Z,11.19
2017-10-17T04:24:13.859Z,11.19
2017-10-17T04:25:20.897Z,11.19
2017-10-17T04:26:27.908Z,11.19
2017-10-17T04:27:34.845Z,11.19
2017-10-17T04:28:41.821Z,11.17
2017-10-17T04:29:48.742Z,11.16
2017-10-17T04:30:55.689Z,11.13
2017-10-17T04:32:02.948Z,11.14
2017-10-17T04:33:09.377Z,11.13
2017-10-17T04:34:16.338Z,11.13
2017-10-17T04:35:23.329Z,11.13
2017-10-17T04:36:30.298Z,11.12
2017-10-17T04:37:37.218Z,11.12
2017-10-17T04:38:44.173Z,11.10
2017-10-17T04:39:51.082Z,11.10
2017-10-17T04:40:58.050Z,11.08
2017-10-17T04:42:04.995Z,11.10
2017-10-17T04:43:11.966Z,11.09
2017-10-17T04:44:18.912Z,11.08
2017-10-17T04:45:25.876Z,11.07
2017-10-17T04:46:33.079Z,11.06
2017-10-17T04:47:39.899Z,11.05
2017-10-17T04:48:47.150Z,11.06
2017-10-17T04:49:54.380Z,11.05
2017-10-17T04:51:00.420Z,11.03
2017-10-17T04:52:07.417Z,11.03
2017-10-17T04:53:14.359Z,11.02
2017-10-17T04:54:21.356Z,11.01
2017-10-17T04:55:28.285Z,11.00
2017-10-17T04:56:35.309Z,10.99
2017-10-17T04:57:42.245Z,11.00
2017-10-17T04:58:49.189Z,11.00
2017-10-17T04:59:56.329Z,10.97
2017-10-17T05:01:03.254Z,10.97
2017-10-17T05:02:10.274Z,10.97
2017-10-17T05:03:17.232Z,10.96
2017-10-17T05:04:24.145Z,10.96
2017-10-17T05:05:31.122Z,10.94
2017-10-17T05:06:38.050Z,10.95
2017-10-17T05:07:45.099Z,10.94
2017-10-17T05:08:52.057Z,10.94
2017-10-17T05:09:59.161Z,10.93
2017-10-17T05:11:05.878Z,10.92
2017-10-17T05:12:12.802Z,10.92
2017-10-17T05:13:19.541Z,10.91
2017-10-17T05:14:26.578Z,10.89
2017-10-17T05:15:33.494Z,10.90
2017-10-17T05:16:40.454Z,10.90
2017-10-17T05:17:47.383Z,10.88
2017-10-17T05:18:54.313Z,10.86
2017-10-17T05:20:01.322Z,10.87
2017-10-17T05:21:08.301Z,10.86
2017-10-17T05:22:15.316Z,10.86
2017-10-17T05:23:22.346Z,10.85
2017-10-17T05:24:29.286Z,10.85
2017-10-17T05:25:36.182Z,10.84
2017-10-17T05:26:43.124Z,10.85
2017-10-17T05:27:49.864Z,10.83
2017-10-17T05:28:56.694Z,10.83
2017-10-17T05:30:03.640Z,10.82
2017-10-17T05:31:10.677Z,10.81
2017-10-17T05:32:17.580Z,10.79
2017-10-17T05:33:24.489Z,10.80
2017-10-17T05:34:31.567Z,10.80
2017-10-17T05:35:38.559Z,10.79
2017-10-17T05:36:45.458Z,10.77
2017-10-17T05:37:52.467Z,10.77
2017-10-17T05:38:59.377Z,10.77
2017-10-17T05:40:06.314Z,10.75
2017-10-17T05:41:13.223Z,10.76
2017-10-17T05:42:20.186Z,10.75
2017-10-17T05:43:27.217Z,10.74
2017-10-17T05:44:34.146Z,10.74
2017-10-17T05:45:41.065Z,10.73
2017-10-17T05:46:48.022Z,10.73
2017-10-17T05:47:54.918Z,10.72
2017-10-17T05:49:01.954Z,10.72
2017-10-17T05:50:08.878Z,10.72
2017-10-17T05:51:15.805Z,10.72
2017-10-17T05:52:22.680Z,10.71
2017-10-17T05:53:29.545Z,10.71
2017-10-17T05:54:36.426Z,10.69
2017-10-17T05:55:43.257Z,10.69
2017-10-17T05:56:50.014Z,10.68
2017-10-17T05:57:56.790Z,10.67
2017-10-17T05:59:03.609Z,10.67
2017-10-17T06:00:10.450Z,10.66
2017-10-17T06:01:17.196Z,10.66
2017-10-17T06:02:24.002Z,10.66
2017-10-17T06:03:30.758Z,10.65
2017-10-17T06:04:37.540Z,10.63
2017-10-17T06:05:44.338Z,10.63
2017-10-17T06:06:51.105Z,10.63
2017-10-17T06:07:57.850Z,10.63
2017-10-17T06:09:04.697Z,10.62
2017-10-17T06:10:11.478Z,10.61
2017-10-17T06:11:18.261Z,10.62
2017-10-17T06:12:25.040Z,10.59
2017-10-17T06:13:31.793Z,10.59
2017-10-17T06:14:38.601Z,10.58
2017-10-17T06:15:45.426Z,10.59
2017-10-17T06:16:52.238Z,10.58
2017-10-17T06:17:59.109Z,10.57
2017-10-17T06:19:05.883Z,10.59
2017-10-17T06:20:12.652Z,10.58
2017-10-17T06:21:19.430Z,10.56
2017-10-17T06:22:26.261Z,10.57
2017-10-17T06:23:33.034Z,10.55
2017-10-17T06:24:39.892Z,10.55
2017-10-17T06:25:46.761Z,10.54
2017-10-17T06:26:53.500Z,10.54
2017-10-17T06:28:00.269Z,10.53
2017-10-17T06:29:07.058Z,10.55
2017-10-17T06:30:13.838Z,10.51
2017-10-17T06:31:20.630Z,10.52
2017-10-17T06:32:27.390Z,10.52
2017-10-17T06:33:34.150Z,10.52
2017-10-17T06:34:40.966Z,10.51
2017-10-17T06:35:47.766Z,10.50
2017-10-17T06:36:54.537Z,10.50
2017-10-17T06:38:01.338Z,10.48
2017-10-17T06:39:08.147Z,10.50
2017-10-17T06:40:15.078Z,10.48
2017-10-17T06:41:21.833Z,10.48
2017-10-17T06:42:28.794Z,10.48
2017-10-17T06:43:35.573Z,10.48
2017-10-17T06:44:42.333Z,10.47
2017-10-17T06:45:49.158Z,10.47
2017-10-17T06:46:55.930Z,10.46
2017-10-17T06:48:02.717Z,10.46
2017-10-17T06:49:09.613Z,10.46
2017-10-17T06:50:16.413Z,10.44
2017-10-17T06:51:23.358Z,10.45
2017-10-17T06:52:30.134Z,10.42
2017-10-17T06:53:36.990Z,10.43
2017-10-17T06:54:43.819Z,10.43
2017-10-17T06:55:50.658Z,10.43
2017-10-17T06:56:57.430Z,10.43
2017-10-17T06:58:04.266Z,10.42
2017-10-17T06:59:11.094Z,10.42
2017-10-17T07:00:18.223Z,10.42
2017-10-17T07:01:25.034Z,10.41
2017-10-17T07:02:31.947Z,10.41
2017-10-17T07:03:38.796Z,10.40
2017-10-17T07:04:45.681Z,10.41
2017-10-17T07:05:52.528Z,10.40
2017-10-17T07:06:59.414Z,10.40
2017-10-17T07:08:06.370Z,10.40
2017-10-17T07:09:13.215Z,10.39
2017-10-17T07:10:20.001Z,10.40
2017-10-17T07:11:26.892Z,10.40
2017-10-17T07:12:33.689Z,10.39
2017-10-17T07:13:40.587Z,10.38
2017-10-17T07:14:47.381Z,10.39
2017-10-17T07:15:54.205Z,10.40
2017-10-17T07:17:00.970Z,10.39
2017-10-17T07:18:07.770Z,10.40
2017-10-17T07:19:14.578Z,10.40
2017-10-17T07:20:21.345Z,10.38
2017-10-17T07:21:28.134Z,10.39
2017-10-17T07:22:35.079Z,10.38
2017-10-17T07:23:41.857Z,10.38
2017-10-17T07:24:48.654Z,10.38
2017-10-17T07:25:55.514Z,10.38
2017-10-17T07:27:02.334Z,10.38
2017-10-17T07:28:09.178Z,10.38
2017-10-17T07:29:16.146Z,10.37
2017-10-17T07:30:22.945Z,10.38
2017-10-17T07:31:29.766Z,10.38
2017-10-17T07:32:36.676Z,10.37
2017-10-17T07:33:43.801Z,10.37
2017-10-17T07:34:50.570Z,10.38
2017-10-17T07:35:57.369Z,10.38
2017-10-17T07:37:04.166Z,10.38
2017-10-17T07:38:10.958Z,10.40
2017-10-17T07:39:17.742Z,10.38
2017-10-17T07:40:24.518Z,10.39
2017-10-17T07:41:31.338Z,10.39
2017-10-17T07:42:38.306Z,10.38
2017-10-17T07:43:45.076Z,10.36
2017-10-17T07:44:51.854Z,10.40
2017-10-17T07:45:58.674Z,10.40
2017-10-17T07:47:05.513Z,10.39
2017-10-17T07:48:12.381Z,10.40
2017-10-17T07:49:20.570Z,10.39
2017-10-17T07:50:26.341Z,10.40
2017-10-17T07:51:33.370Z,10.40
2017-10-17T07:52:40.171Z,10.39
2017-10-17T07:53:47.005Z,10.40
2017-10-17T07:54:53.785Z,10.40
2017-10-17T07:56:00.678Z,10.41
2017-10-17T07:57:07.485Z,10.42
2017-10-17T07:58:14.324Z,10.43
2017-10-17T07:59:21.267Z,10.41
2017-10-17T08:00:27.799Z,10.42
2017-10-17T08:01:34.577Z,10.43
2017-10-17T08:02:41.343Z,10.44
2017-10-17T08:03:48.407Z,10.43
2017-10-17T08:04:55.215Z,10.44
2017-10-17T08:06:02.082Z,10.45
2017-10-17T08:07:08.962Z,10.46
2017-10-17T08:08:15.823Z,10.45
2017-10-17T08:09:22.730Z,10.46
2017-10-17T08:10:29.522Z,10.47
2017-10-17T08:11:36.306Z,10.48
2017-10-17T08:12:43.110Z,10.48
2017-10-17T08:13:49.904Z,10.47
2017-10-17T08:14:56.815Z,10.50
2017-10-17T08:16:04.312Z,10.50
2017-10-17T08:17:10.569Z,10.50
2017-10-17T08:18:17.323Z,10.51
2017-10-17T08:19:24.114Z,10.50
2017-10-17T08:20:30.927Z,10.51
2017-10-17T08:21:38.023Z,10.52
2017-10-17T08:22:44.889Z,10.52
2017-10-17T08:23:51.622Z,10.54
2017-10-17T08:24:58.418Z,10.55
2017-10-17T08:26:05.186Z,10.55
2017-10-17T08:27:11.965Z,10.55
2017-10-17T08:28:18.802Z,10.56
2017-10-17T08:29:25.543Z,10.56
2017-10-17T08:30:32.314Z,10.57
2017-10-17T08:31:39.209Z,10.58
2017-10-17T08:32:46.038Z,10.58
2017-10-17T08:33:52.910Z,10.61
2017-10-17T08:34:59.690Z,10.60
2017-10-17T08:36:06.465Z,10.61
2017-10-17T08:37:13.270Z,10.63
2017-10-17T08:38:20.047Z,10.64
2017-10-17T08:39:27.183Z,10.63
2017-10-17T08:40:34.121Z,10.66
2017-10-17T08:41:40.998Z,10.67
2017-10-17T08:42:47.755Z,10.67
2017-10-17T08:43:54.617Z,10.68
2017-10-17T08:45:01.619Z,10.69
2017-10-17T08:46:08.381Z,10.69
2017-10-17T08:47:15.165Z,10.71
2017-10-17T08:48:21.962Z,10.72
2017-10-17T08:49:34.011Z,10.73
2017-10-17T08:50:35.831Z,10.73
2017-10-17T08:51:42.626Z,10.75
2017-10-17T08:52:49.471Z,10.77
2017-10-17T08:53:56.422Z,10.77
2017-10-17T08:55:03.226Z,10.79
2017-10-17T08:56:10.186Z,10.79
2017-10-17T08:57:16.949Z,10.81
2017-10-17T08:58:23.779Z,10.83
2017-10-17T08:59:30.499Z,10.83
2017-10-17T09:00:37.310Z,10.86
2017-10-17T09:01:44.093Z,10.88
2017-10-17T09:02:51.128Z,10.88
2017-10-17T09:03:57.930Z,10.90
2017-10-17T09:05:04.793Z,10.90
2017-10-17T09:06:11.582Z,10.92
2017-10-17T09:07:18.355Z,10.94
2017-10-17T09:08:25.133Z,10.94
2017-10-17T09:09:31.897Z,10.97
2017-10-17T09:10:39.018Z,10.98
2017-10-17T09:11:45.816Z,11.00
2017-10-17T09:12:52.606Z,11.02
2017-10-17T09:13:59.370Z,11.03
2017-10-17T09:15:06.154Z,11.03
2017-10-17T09:16:12.971Z,11.05
2017-10-17T09:17:19.734Z,11.07
2017-10-17T09:18:26.498Z,11.09
2017-10-17T09:19:33.282Z,11.10
2017-10-17T09:20:40.038Z,11.11
2017-10-17T09:21:46.838Z,11.12
2017-10-17T09:22:53.772Z,11.14
2017-10-17T09:24:00.531Z,11.17
2017-10-17T09:25:07.391Z,11.18
2017-10-17T09:26:14.171Z,11.21
2017-10-17T09:27:20.931Z,11.23
2017-10-17T09:28:27.729Z,11.25
2017-10-17T09:29:34.502Z,11.26
2017-10-17T09:30:41.249Z,11.29
2017-10-17T09:31:48.104Z,11.30
2017-10-17T09:32:54.962Z,11.32
2017-10-17T09:34:01.718Z,11.35
2017-10-17T09:35:08.458Z,11.37
2017-10-17T09:36:15.266Z,11.38
2017-10-17T09:37:22.021Z,11.41
2017-10-17T09:38:28.866Z,11.43
2017-10-17T09:39:35.719Z,11.45
2017-10-17T09:40:42.550Z,11.48
2017-10-17T09:41:49.360Z,11.50
2017-10-17T09:42:56.154Z,11.52
2017-10-17T09:44:02.975Z,11.53
2017-10-17T09:45:09.743Z,11.55
2017-10-17T09:46:16.550Z,11.57
2017-10-17T09:47:23.319Z,11.59
2017-10-17T09:48:30.054Z,11.61
2017-10-17T09:49:36.791Z,11.66
2017-10-17T09:50:43.566Z,11.67
2017-10-17T09:51:50.327Z,11.68
2017-10-17T09:52:57.093Z,11.71
2017-10-17T09:54:03.917Z,11.73
2017-10-17T09:55:10.721Z,11.75
2017-10-17T09:56:17.489Z,11.78
2017-10-17T09:57:24.301Z,11.79
2017-10-17T09:58:31.049Z,11.83
2017-10-17T09:59:37.817Z,11.85
2017-10-17T10:00:44.654Z,11.87
2017-10-17T10:01:51.430Z,11.90
2017-10-17T10:02:58.205Z,11.92
2017-10-17T10:04:05.009Z,11.95
2017-10-17T10:05:11.861Z,11.97
2017-10-17T10:06:18.774Z,11.99
2017-10-17T10:07:25.634Z,12.02
2017-10-17T10:08:32.497Z,12.04
2017-10-17T10:09:40.698Z,12.06
2017-10-17T10:10:45.977Z,12.09
2017-10-17T10:11:52.740Z,12.11
2017-10-17T10:12:59.581Z,12.14
2017-10-17T10:14:06.353Z,12.18
2017-10-17T10:15:13.122Z,12.19
2017-10-17T10:16:19.870Z,12.23
2017-10-17T10:17:26.641Z,12.24
2017-10-17T10:18:33.827Z,12.29
2017-10-17T10:19:40.441Z,12.30
2017-10-17T10:20:47.312Z,12.32
2017-10-17T10:21:54.290Z,12.36
2017-10-17T10:23:01.071Z,12.38
2017-10-17T10:24:07.894Z,12.39
2017-10-17T10:25:14.786Z,12.42
2017-10-17T10:26:21.601Z,12.45
2017-10-17T10:27:28.543Z,12.50
2017-10-17T10:28:35.310Z,12.51
2017-10-17T10:29:42.077Z,12.53
2017-10-17T10:30:48.888Z,12.57
2017-10-17T10:31:55.678Z,12.59
2017-10-17T10:33:02.482Z,12.62
2017-10-17T10:34:09.257Z,12.64
2017-10-17T10:35:16.039Z,12.68
2017-10-17T10:36:22.838Z,12.71
2017-10-17T10:37:29.602Z,12.73
2017-10-17T10:38:36.382Z,12.76
2017-10-17T10:39:43.134Z,12.79
2017-10-17T10:40:49.902Z,12.81
2017-10-17T10:41:56.689Z,12.83
2017-10-17T10:43:03.514Z,12.87
2017-10-17T10:44:10.287Z,12.90
2017-10-17T10:45:17.037Z,12.93
2017-10-17T10:46:23.826Z,12.94
2017-10-17T10:47:30.629Z,12.98
2017-10-17T10:48:37.365Z,13.02
2017-10-17T10:49:44.118Z,13.02
2017-10-17T10:50:50.967Z,13.08
2017-10-17T10:51:57.745Z,13.10
2017-10-17T10:53:04.499Z,13.12
2017-10-17T10:54:11.277Z,13.15
2017-10-17T10:55:18.043Z,13.20
2017-10-17T10:56:25.124Z,13.23
2017-10-17T10:57:31.906Z,13.26
2017-10-17T10:58:38.682Z,13.27
2017-10-17T10:59:45.510Z,13.29
2017-10-17T11:00:52.270Z,13.33
2017-10-17T11:01:59.054Z,13.35
2017-10-17T11:03:05.947Z,13.37
2017-10-17T11:04:12.755Z,13.41
2017-10-17T11:05:19.595Z,13.45
2017-10-17T11:06:26.341Z,13.48
2017-10-17T11:07:33.173Z,13.51
2017-10-17T11:08:39.942Z,13.52
2017-10-17T11:09:46.714Z,13.55
2017-10-17T11:10:53.875Z,13.58
2017-10-17T11:12:00.626Z,13.61
2017-10-17T11:13:07.406Z,13.62
2017-10-17T11:14:14.150Z,13.67
2017-10-17T11:15:20.913Z,13.70
2017-10-17T11:16:27.673Z,13.72
2017-10-17T11:17:34.446Z,13.74
2017-10-17T11:18:41.178Z,13.78
2017-10-17T11:19:48.021Z,13.81
2017-10-17T11:20:54.943Z,13.85
2017-10-17T11:22:01.739Z,13.87
2017-10-17T11:23:08.554Z,13.91
2017-10-17T11:24:15.374Z,13.93
2017-10-17T11:25:22.434Z,13.97
2017-10-17T11:26:29.177Z,13.99
2017-10-17T11:27:35.965Z,14.05
2017-10-17T11:28:42.842Z,14.06
2017-10-17T11:29:49.623Z,14.09
2017-10-17T11:30:56.425Z,14.12
2017-10-17T11:32:03.257Z,14.15
2017-10-17T11:33:10.000Z,14.18
2017-10-17T11:34:16.879Z,14.21
2017-10-17T11:35:23.731Z,14.25
2017-10-17T11:36:30.474Z,14.28
2017-10-17T11:37:37.424Z,14.29
2017-10-17T11:38:44.182Z,14.33
2017-10-17T11:39:51.065Z,14.35
2017-10-17T11:40:57.842Z,14.37
2017-10-17T11:42:04.730Z,14.41
2017-10-17T11:43:15.350Z,14.45
2017-10-17T11:44:22.294Z,14.47
2017-10-17T11:45:29.083Z,14.51
2017-10-17T11:46:35.826Z,14.54
2017-10-17T11:47:42.969Z,14.57
2017-10-17T11:48:49.775Z,14.58
2017-10-17T11:49:56.543Z,14.62
2017-10-17T11:51:03.358Z,14.66
2017-10-17T11:52:10.152Z,14.68
2017-10-17T11:53:17.031Z,14.70
2017-10-17T11:54:23.891Z,14.73
2017-10-17T11:55:30.778Z,14.77
2017-10-17T11:56:37.557Z,14.78
2017-10-17T11:57:44.421Z,14.83
2017-10-17T11:58:51.527Z,14.86
2017-10-17T11:59:58.286Z,14.89
2017-10-17T12:01:05.070Z,14.91
2017-10-17T12:02:11.875Z,14.94
2017-10-17T12:03:18.664Z,14.98
2017-10-17T12:04:25.433Z,15.00
2017-10-17T12:05:32.270Z,15.04
2017-10-17T12:06:39.102Z,15.07
2017-10-17T12:07:45.891Z,15.10
2017-10-17T12:08:52.745Z,15.12
2017-10-17T12:09:59.506Z,15.15
2017-10-17T12:11:06.249Z,15.18
2017-10-17T12:12:13.120Z,15.20
2017-10-17T12:13:20.083Z,15.24
2017-10-17T12:14:26.941Z,15.26
2017-10-17T12:15:33.698Z,15.30
2017-10-17T12:16:40.573Z,15.33
2017-10-17T12:17:47.409Z,15.36
2017-10-17T12:18:54.309Z,15.38
2017-10-17T12:20:01.067Z,15.41
2017-10-17T12:21:07.883Z,15.45
2017-10-17T12:22:14.761Z,15.48
2017-10-17T12:23:21.566Z,15.50
2017-10-17T12:24:28.694Z,15.53
2017-10-17T12:25:35.524Z,15.55
2017-10-17T12:26:42.317Z,15.57
2017-10-17T12:27:49.122Z,15.60
2017-10-17T12:28:55.875Z,15.65
2017-10-17T12:30:02.750Z,15.66
2017-10-17T12:31:09.613Z,15.70
2017-10-17T12:32:16.433Z,15.72
2017-10-17T12:33:23.230Z,15.75
2017-10-17T12:34:29.994Z,15.78
2017-10-17T12:35:37.083Z,15.82
2017-10-17T12:36:43.862Z,15.84
2017-10-17T12:37:50.701Z,15.86
2017-10-17T12:38:57.470Z,15.89
2017-10-17T12:40:04.292Z,15.93
2017-10-17T12:41:11.050Z,15.94
2017-10-17T12:42:17.825Z,15.96
2017-10-17T12:43:24.617Z,15.98
2017-10-17T12:44:31.378Z,16.01
2017-10-17T12:45:38.155Z,16.05
2017-10-17T12:46:44.893Z,16.05
2017-10-17T12:47:51.746Z,16.09
2017-10-17T12:48:58.522Z,16.12
2017-10-17T12:50:05.274Z,16.15
2017-10-17T12:51:12.093Z,16.17
2017-10-17T12:52:18.902Z,16.19
2017-10-17T12:53:25.724Z,16.22
2017-10-17T12:54:32.617Z,16.25
2017-10-17T12:55:39.389Z,16.26
2017-10-17T12:56:46.133Z,16.29
2017-10-17T12:57:52.906Z,16.32
2017-10-17T12:58:59.913Z,16.35
2017-10-17T13:00:06.770Z,16.37
2017-10-17T13:01:13.510Z,16.38
2017-10-17T13:02:20.754Z,16.43
2017-10-17T13:03:27.098Z,16.43
2017-10-17T13:04:33.829Z,16.47
2017-10-17T13:05:40.661Z,16.50
2017-10-17T13:06:47.537Z,16.51
2017-10-17T13:07:54.458Z,16.53
2017-10-17T13:09:01.202Z,16.56
2017-10-17T13:10:08.018Z,16.58
2017-10-17T13:11:14.937Z,16.61
2017-10-17T13:12:21.745Z,16.64
2017-10-17T13:13:28.518Z,16.66
2017-10-17T13:14:35.302Z,16.68
2017-10-17T13:15:42.113Z,16.71
2017-10-17T13:16:49.041Z,16.74
2017-10-17T13:17:55.966Z,16.76
2017-10-17T13:19:02.915Z,16.78
2017-10-17T13:20:09.733Z,16.80
2017-10-17T13:21:16.554Z,16.82
2017-10-17T13:22:23.379Z,16.85
2017-10-17T13:23:30.153Z,16.86
2017-10-17T13:24:36.946Z,16.88
2017-10-17T13:25:43.813Z,16.91
2017-10-17T13:26:50.698Z,16.92
2017-10-17T13:27:57.504Z,16.95
2017-10-17T13:29:04.282Z,16.96
2017-10-17T13:30:11.094Z,16.98
2017-10-17T13:31:17.857Z,17.01
2017-10-17T13:32:24.666Z,17.04
2017-10-17T13:33:31.462Z,17.06
2017-10-17T13:34:38.245Z,17.07
2017-10-17T13:35:45.095Z,17.10
2017-10-17T13:36:51.855Z,17.12
2017-10-17T13:37:58.718Z,17.13
2017-10-17T13:39:05.666Z,17.15
2017-10-17T13:40:12.466Z,17.17
2017-10-17T13:41:19.219Z,17.20
2017-10-17T13:42:25.993Z,17.22
2017-10-17T13:43:32.853Z,17.24
2017-10-17T13:44:39.611Z,17.25
2017-10-17T13:45:46.378Z,17.27
2017-10-17T13:46:53.395Z,17.29
2017-10-17T13:48:00.260Z,17.30
2017-10-17T13:49:07.012Z,17.33
2017-10-17T13:50:13.854Z,17.34
2017-10-17T13:51:20.629Z,17.36
2017-10-17T13:52:27.429Z,17.39
2017-10-17T13:53:34.223Z,17.39
2017-10-17T13:54:40.961Z,17.41
2017-10-17T13:55:47.719Z,17.44
2017-10-17T13:56:54.485Z,17.47
2017-10-17T13:58:01.270Z,17.49
2017-10-17T13:59:08.046Z,17.50
2017-10-17T14:00:14.834Z,17.53
2017-10-17T14:01:21.651Z,17.54
2017-10-17T14:02:28.474Z,17.56
2017-10-17T14:03:35.262Z,17.57
2017-10-17T14:04:42.075Z,17.57
2017-10-17T14:05:48.821Z,17.60
2017-10-17T14:06:55.670Z,17.62
2017-10-17T14:08:02.486Z,17.63
2017-10-17T14:09:09.258Z,17.65
2017-10-17T14:10:16.021Z,17.67
2017-10-17T14:11:22.807Z,17.69
2017-10-17T14:12:29.638Z,17.72
2017-10-17T14:13:36.542Z,17.73
2017-10-17T14:14:43.335Z,17.74
2017-10-17T14:15:50.130Z,17.75
2017-10-17T14:16:57.014Z,17.77
2017-10-17T14:18:03.856Z,17.80
2017-10-17T14:19:10.738Z,17.81
2017-10-17T14:20:17.523Z,17.82
2017-10-17T14:21:24.492Z,17.84